Time;durP1;ratioP1;P1;durP2;ratioP2;P2;SDS_P1;SDS_P2;PMS_P1;PMS_P2;Temp;Humidity;BMP_temperature;BMP_pressure;BME280_temperature;BME280_humidity;BME280_pressure;Samples;Min_cycle;Max_cycle;Signal;HPM_P1;HPM_P2
2021/07/25 00:00:34;;;;;;;55.73;36.10;;;;;;;;;;3568075;40;20416;-74
2021/07/25 00:03:01;;;;;;;50.43;36.10;;;;;;;;;;3575994;39;20758;-74
2021/07/25 00:05:27;;;;;;;51.40;37.30;;;;;;;;;;3578318;39;20469;-74
2021/07/25 00:07:53;;;;;;;52.23;36.40;;;;;;;;;;3579005;39;20412;-74
2021/07/25 00:10:19;;;;;;;52.13;37.70;;;;;;;;;;3577174;39;20692;-74
2021/07/25 00:12:45;;;;;;;51.33;34.30;;;;;;;;;;3578447;40;20408;-74
2021/07/25 00:15:11;;;;;;;51.60;36.43;;;;;;;;;;3577145;39;20373;-74
2021/07/25 00:17:37;;;;;;;50.77;33.67;;;;;;;;;;3579404;40;20401;-74
2021/07/25 00:20:04;;;;;;;46.93;33.60;;;;;;;;;;3569018;39;20414;-74
2021/07/25 00:22:30;;;;;;;45.70;34.00;;;;;;;;;;3568997;40;20408;-74
2021/07/25 00:25:32;;;;;;;43.57;32.87;;;;;;;;;;3579284;40;20390;-74
2021/07/25 00:27:54;;;;;;;49.87;33.77;;;;;;;;;;3576326;39;20428;-74
2021/07/25 00:30:21;;;;;;;49.00;32.00;;;;;;;;;;3578683;40;20421;-74
2021/07/25 00:32:47;;;;;;;51.43;35.60;;;;;;;;;;3569632;40;21121;-74
2021/07/25 00:35:15;;;;;;;49.97;33.87;;;;;;;;;;3577524;40;20385;-74
2021/07/25 00:37:44;;;;;;;48.50;33.43;;;;;;;;;;3577072;39;20404;-75
2021/07/25 00:40:31;;;;;;;52.83;33.20;;;;;;;;;;3575734;40;20429;-75
2021/07/25 00:42:57;;;;;;;45.23;32.97;;;;;;;;;;3551325;40;20418;-75
2021/07/25 00:45:23;;;;;;;48.87;33.80;;;;;;;;;;3560857;40;20409;-75
2021/07/25 00:47:49;;;;;;;51.93;33.37;;;;;;;;;;3559661;40;20398;-75
2021/07/25 00:50:16;;;;;;;48.10;31.73;;;;;;;;;;3560655;40;20520;-75
2021/07/25 00:52:43;;;;;;;52.20;34.33;;;;;;;;;;3559021;40;20462;-75
2021/07/25 00:55:09;;;;;;;47.53;34.97;;;;;;;;;;3568103;40;20882;-75
2021/07/25 00:57:36;;;;;;;47.17;34.10;;;;;;;;;;3559996;40;20414;-75
2021/07/25 01:00:06;;;;;;;52.03;32.93;;;;;;;;;;3551471;40;20433;-75
2021/07/25 01:05:24;;;;;;;50.60;30.07;;;;;;;;;;3581279;39;20414;-84
2021/07/25 01:07:55;;;;;;;38.20;28.87;;;;;;;;;;3584919;40;20415;-84
2021/07/25 01:10:27;;;;;;;47.47;30.97;;;;;;;;;;3576183;40;20416;-84
2021/07/25 01:12:58;;;;;;;40.13;30.13;;;;;;;;;;3576838;40;21883;-84
2021/07/25 01:15:27;;;;;;;42.47;31.00;;;;;;;;;;3590410;39;20402;-83
2021/07/25 01:18:01;;;;;;;39.13;30.40;;;;;;;;;;3591279;39;20498;-83
2021/07/25 01:20:29;;;;;;;38.67;28.37;;;;;;;;;;3588240;39;20621;-83
2021/07/25 01:22:56;;;;;;;37.70;29.77;;;;;;;;;;3581910;40;20432;-83
2021/07/25 01:25:23;;;;;;;41.93;31.63;;;;;;;;;;3572050;40;20381;-82
2021/07/25 01:28:21;;;;;;;39.80;30.07;;;;;;;;;;3590774;39;20433;-83
2021/07/25 01:30:50;;;;;;;35.43;29.67;;;;;;;;;;3559520;40;20415;-82
2021/07/25 01:33:20;;;;;;;46.50;29.57;;;;;;;;;;3553157;40;20431;-82
2021/07/25 01:35:46;;;;;;;43.73;30.33;;;;;;;;;;3559960;40;21151;-84
2021/07/25 01:38:14;;;;;;;40.33;29.83;;;;;;;;;;3561481;40;20902;-83
2021/07/25 01:40:41;;;;;;;37.33;28.10;;;;;;;;;;3561694;40;20953;-82
2021/07/25 01:43:13;;;;;;;36.77;28.63;;;;;;;;;;3560702;40;20430;-83
2021/07/25 01:45:40;;;;;;;42.40;29.77;;;;;;;;;;3549727;40;20413;-82
2021/07/25 01:48:07;;;;;;;36.80;28.80;;;;;;;;;;3549322;40;20489;-82
2021/07/25 01:50:33;;;;;;;43.57;30.27;;;;;;;;;;3552572;40;20426;-82
2021/07/25 01:52:59;;;;;;;45.07;30.53;;;;;;;;;;3546855;40;20465;-84
2021/07/25 01:55:26;;;;;;;45.70;30.60;;;;;;;;;;3563374;40;20473;-81
2021/07/25 01:57:52;;;;;;;47.13;32.10;;;;;;;;;;3560892;40;20401;-82
2021/07/25 02:00:18;;;;;;;47.43;32.40;;;;;;;;;;3551665;40;20460;-83
2021/07/25 02:02:44;;;;;;;52.20;33.63;;;;;;;;;;3549725;40;20474;-82
2021/07/25 02:05:10;;;;;;;46.77;33.60;;;;;;;;;;3552986;40;20402;-82
2021/07/25 02:07:37;;;;;;;44.70;31.70;;;;;;;;;;3573495;40;20388;-83
2021/07/25 02:10:05;;;;;;;49.20;34.40;;;;;;;;;;3582681;39;20410;-82
2021/07/25 02:12:31;;;;;;;48.70;34.87;;;;;;;;;;3564734;40;20417;-83
2021/07/25 02:14:59;;;;;;;59.27;36.30;;;;;;;;;;3572570;40;20375;-82
2021/07/25 02:17:25;;;;;;;50.80;36.50;;;;;;;;;;3571547;40;21307;-83
2021/07/25 02:19:52;;;;;;;60.43;36.67;;;;;;;;;;3580169;40;20444;-82
2021/07/25 02:22:18;;;;;;;56.20;39.30;;;;;;;;;;3573949;40;20425;-83
2021/07/25 02:25:04;;;;;;;56.70;37.37;;;;;;;;;;3566024;40;20416;-82
2021/07/25 02:27:31;;;;;;;49.33;37.30;;;;;;;;;;3574083;40;20471;-83
2021/07/25 02:29:57;;;;;;;59.60;38.20;;;;;;;;;;3566524;40;20384;-83
2021/07/25 02:32:24;;;;;;;53.43;35.70;;;;;;;;;;3585710;39;20440;-83
2021/07/25 02:34:52;;;;;;;53.37;36.87;;;;;;;;;;3585898;40;20393;-83
2021/07/25 02:37:18;;;;;;;63.13;36.00;;;;;;;;;;3566254;40;20423;-83
2021/07/25 02:39:44;;;;;;;50.27;34.50;;;;;;;;;;3573368;40;20861;-83
2021/07/25 02:42:12;;;;;;;49.73;33.17;;;;;;;;;;3572171;40;20395;-83
2021/07/25 02:44:41;;;;;;;52.73;36.20;;;;;;;;;;3573580;40;20420;-81
2021/07/25 02:47:14;;;;;;;54.10;33.70;;;;;;;;;;3565201;40;20392;-83
2021/07/25 02:49:41;;;;;;;74.33;37.10;;;;;;;;;;3575382;40;20501;-83
2021/07/25 02:52:07;;;;;;;92.10;33.80;;;;;;;;;;3563925;40;20468;-82
2021/07/25 02:54:33;;;;;;;46.33;36.90;;;;;;;;;;3574856;40;21019;-82
2021/07/25 02:57:02;;;;;;;53.73;34.93;;;;;;;;;;3574254;40;20400;-82
2021/07/25 02:59:28;;;;;;;58.27;34.80;;;;;;;;;;3574757;40;20489;-82
2021/07/25 03:01:57;;;;;;;48.10;34.93;;;;;;;;;;3574065;40;20424;-82
2021/07/25 03:04:23;;;;;;;48.93;33.93;;;;;;;;;;3584521;40;20401;-83
2021/07/25 03:06:50;;;;;;;47.33;33.50;;;;;;;;;;3582894;39;20428;-83
2021/07/25 03:09:17;;;;;;;49.67;34.10;;;;;;;;;;3573541;40;20937;-83
2021/07/25 03:11:44;;;;;;;59.60;36.43;;;;;;;;;;3576271;40;20397;-82
2021/07/25 03:14:10;;;;;;;52.07;35.40;;;;;;;;;;3584168;40;20417;-83
2021/07/25 03:16:38;;;;;;;56.80;38.67;;;;;;;;;;3568973;40;20791;-83
2021/07/25 03:19:04;;;;;;;54.10;34.90;;;;;;;;;;3569984;40;20437;-83
2021/07/25 03:21:33;;;;;;;48.87;33.87;;;;;;;;;;3581245;39;21331;-83
2021/07/25 03:24:00;;;;;;;54.93;35.60;;;;;;;;;;3581821;40;20415;-83
2021/07/25 03:26:27;;;;;;;59.63;36.50;;;;;;;;;;3565672;40;21098;-83
2021/07/25 03:28:53;;;;;;;54.87;36.50;;;;;;;;;;3574235;40;20422;-83
2021/07/25 03:31:19;;;;;;;63.33;38.77;;;;;;;;;;3581180;40;20398;-83
2021/07/25 03:33:46;;;;;;;66.30;39.57;;;;;;;;;;3573256;40;20404;-82
2021/07/25 03:36:12;;;;;;;67.20;38.73;;;;;;;;;;3574265;40;20383;-82
2021/07/25 03:38:39;;;;;;;65.97;39.90;;;;;;;;;;3566132;40;20401;-82
2021/07/25 03:41:05;;;;;;;63.70;39.83;;;;;;;;;;3577165;40;20416;-82
2021/07/25 03:43:32;;;;;;;63.87;40.30;;;;;;;;;;3571925;40;20861;-82
2021/07/25 03:45:58;;;;;;;67.80;38.77;;;;;;;;;;3572477;40;20613;-82
2021/07/25 03:48:25;;;;;;;54.17;37.13;;;;;;;;;;3564711;40;20408;-82
2021/07/25 03:50:53;;;;;;;64.00;38.47;;;;;;;;;;3585254;40;20455;-83
2021/07/25 03:53:19;;;;;;;59.17;38.60;;;;;;;;;;3579816;39;20397;-84
2021/07/25 03:55:47;;;;;;;66.47;39.53;;;;;;;;;;3574435;40;20429;-83
2021/07/25 03:58:15;;;;;;;61.77;39.40;;;;;;;;;;3576882;40;20758;-83
2021/07/25 04:00:41;;;;;;;57.97;37.10;;;;;;;;;;3582623;39;20492;-84
2021/07/25 04:03:07;;;;;;;70.00;42.67;;;;;;;;;;3586505;39;20483;-83
2021/07/25 04:05:33;;;;;;;64.30;41.47;;;;;;;;;;3583688;40;20459;-83
2021/07/25 04:08:05;;;;;;;63.67;42.17;;;;;;;;;;3573175;40;20726;-83
2021/07/25 04:10:45;;;;;;;67.00;40.33;;;;;;;;;;3584067;39;20408;-83
2021/07/25 04:13:12;;;;;;;67.17;40.07;;;;;;;;;;3565400;40;20817;-83
2021/07/25 04:15:46;;;;;;;64.77;37.60;;;;;;;;;;3573799;40;20429;-82
2021/07/25 04:18:12;;;;;;;59.33;38.00;;;;;;;;;;3576769;40;21113;-84
2021/07/25 04:20:38;;;;;;;65.63;37.23;;;;;;;;;;3584368;40;20410;-84
2021/07/25 04:23:06;;;;;;;55.60;37.03;;;;;;;;;;3583406;39;20990;-83
2021/07/25 04:25:35;;;;;;;61.13;37.63;;;;;;;;;;3566663;40;20405;-83
2021/07/25 04:28:02;;;;;;;54.03;37.30;;;;;;;;;;3582440;40;20408;-83
2021/07/25 04:30:37;;;;;;;56.77;40.40;;;;;;;;;;3584569;40;20401;-83
2021/07/25 04:33:03;;;;;;;66.83;39.53;;;;;;;;;;3575440;40;20391;-83
2021/07/25 04:35:32;;;;;;;75.63;42.17;;;;;;;;;;3574424;40;20809;-84
2021/07/25 04:37:58;;;;;;;65.80;40.13;;;;;;;;;;3574776;40;20409;-84
2021/07/25 04:40:29;;;;;;;70.83;40.40;;;;;;;;;;3574328;39;20459;-83
2021/07/25 04:42:57;;;;;;;56.43;38.50;;;;;;;;;;3577330;40;20404;-84
2021/07/25 04:45:43;;;;;;;66.33;41.47;;;;;;;;;;3575066;40;20448;-83
2021/07/25 04:48:10;;;;;;;64.30;40.90;;;;;;;;;;3575774;40;20408;-84
2021/07/25 04:50:48;;;;;;;74.53;40.43;;;;;;;;;;3584877;40;20425;-83
2021/07/25 04:53:32;;;;;;;68.40;42.00;;;;;;;;;;3583918;40;20413;-84
2021/07/25 04:56:02;;;;;;;74.33;40.40;;;;;;;;;;3568475;40;20412;-84
2021/07/25 04:58:49;;;;;;;56.87;39.17;;;;;;;;;;3567780;40;20416;-84
2021/07/25 05:01:18;;;;;;;64.20;40.10;;;;;;;;;;3584859;39;20424;-84
2021/07/25 05:03:45;;;;;;;63.17;37.73;;;;;;;;;;3562474;40;20410;-84
2021/07/25 05:06:20;;;;;;;65.63;39.10;;;;;;;;;;3573704;40;20418;-83
2021/07/25 05:08:47;;;;;;;57.60;39.90;;;;;;;;;;3576295;40;20409;-85
2021/07/25 05:11:20;;;;;;;55.13;35.30;;;;;;;;;;3569390;40;21611;-83
2021/07/25 05:13:48;;;;;;;49.83;34.60;;;;;;;;;;3561707;40;20417;-83
2021/07/25 05:16:21;;;;;;;47.87;32.50;;;;;;;;;;3576671;40;20401;-83
2021/07/25 05:18:56;;;;;;;42.00;31.43;;;;;;;;;;3574742;40;20413;-83
2021/07/25 05:21:38;;;;;;;43.70;29.13;;;;;;;;;;3566408;40;20409;-84
2021/07/25 05:24:05;;;;;;;35.23;26.60;;;;;;;;;;3564477;40;20512;-83
2021/07/25 05:26:37;;;;;;;33.47;27.07;;;;;;;;;;3575136;40;20497;-83
2021/07/25 05:29:04;;;;;;;32.60;25.33;;;;;;;;;;3564612;40;20416;-82
2021/07/25 05:31:34;;;;;;;29.80;23.00;;;;;;;;;;3574389;40;20843;-84
2021/07/25 05:34:02;;;;;;;23.90;20.33;;;;;;;;;;3558380;40;20430;-82
2021/07/25 05:36:30;;;;;;;25.70;20.87;;;;;;;;;;3566694;40;21201;-82
2021/07/25 05:38:56;;;;;;;26.20;19.30;;;;;;;;;;3565159;40;20413;-83
2021/07/25 05:41:23;;;;;;;26.30;19.40;;;;;;;;;;3572237;40;20426;-83
2021/07/25 05:43:50;;;;;;;18.07;16.13;;;;;;;;;;3565427;40;20741;-82
2021/07/25 05:46:16;;;;;;;22.60;17.43;;;;;;;;;;3566099;40;20822;-82
2021/07/25 05:48:42;;;;;;;22.27;17.70;;;;;;;;;;3562322;40;21888;-82
2021/07/25 05:51:08;;;;;;;19.37;15.90;;;;;;;;;;3557035;40;20820;-81
2021/07/25 05:53:34;;;;;;;21.90;16.60;;;;;;;;;;3563041;40;20712;-81
2021/07/25 05:56:00;;;;;;;16.00;13.83;;;;;;;;;;3556775;40;20417;-81
2021/07/25 05:58:26;;;;;;;22.63;17.33;;;;;;;;;;3571887;40;20456;-81
2021/07/25 06:00:53;;;;;;;17.90;15.43;;;;;;;;;;3571784;40;20427;-82
2021/07/25 06:03:19;;;;;;;14.83;13.03;;;;;;;;;;3564210;40;20500;-81
2021/07/25 06:05:45;;;;;;;14.30;12.77;;;;;;;;;;3577059;40;20413;-83
2021/07/25 06:08:11;;;;;;;14.10;12.60;;;;;;;;;;3574660;40;20428;-83
2021/07/25 06:10:41;;;;;;;13.60;12.20;;;;;;;;;;3573839;40;20412;-83
2021/07/25 06:13:10;;;;;;;13.73;11.50;;;;;;;;;;3568270;40;20400;-82
2021/07/25 06:15:38;;;;;;;12.17;10.40;;;;;;;;;;3574373;40;20435;-82
2021/07/25 06:18:08;;;;;;;11.43;9.93;;;;;;;;;;3574497;40;20416;-81
2021/07/25 06:20:43;;;;;;;11.03;9.20;;;;;;;;;;3580853;39;20432;-83
2021/07/25 06:23:09;;;;;;;9.23;8.33;;;;;;;;;;3580788;39;20441;-81
2021/07/25 06:25:36;;;;;;;9.60;8.33;;;;;;;;;;3574804;40;20440;-83
2021/07/25 06:28:04;;;;;;;10.00;8.43;;;;;;;;;;3575555;39;20440;-83
2021/07/25 06:30:31;;;;;;;9.57;8.37;;;;;;;;;;3565585;40;20478;-82
2021/07/25 06:33:01;;;;;;;9.83;8.83;;;;;;;;;;3560782;39;20404;-82
2021/07/25 06:36:02;;;;;;;9.40;8.20;;;;;;;;;;3572973;40;20413;-81
2021/07/25 06:38:38;;;;;;;7.70;7.00;;;;;;;;;;3544692;40;21495;-83
2021/07/25 06:41:27;;;;;;;7.67;5.80;;;;;;;;;;3534299;40;21173;-81
2021/07/25 06:44:21;;;;;;;7.73;6.93;;;;;;;;;;3542823;40;20808;-81
2021/07/25 06:47:20;;;;;;;6.83;5.43;;;;;;;;;;3533138;40;21535;-84
2021/07/25 06:49:56;;;;;;;6.33;5.73;;;;;;;;;;3547327;40;20419;-83
2021/07/25 06:52:26;;;;;;;8.30;6.23;;;;;;;;;;3537277;40;21238;-84
2021/07/25 06:54:54;;;;;;;6.23;5.63;;;;;;;;;;3542850;40;21109;-81
2021/07/25 06:57:29;;;;;;;7.77;5.70;;;;;;;;;;3548504;40;20431;-82
2021/07/25 06:59:59;;;;;;;5.43;4.83;;;;;;;;;;3542953;40;20728;-84
2021/07/25 07:02:25;;;;;;;6.30;4.70;;;;;;;;;;3544135;40;20431;-82
2021/07/25 07:04:56;;;;;;;6.50;5.23;;;;;;;;;;3547138;40;20419;-82
2021/07/25 07:07:25;;;;;;;8.40;5.27;;;;;;;;;;3541942;40;20414;-82
2021/07/25 07:09:53;;;;;;;6.83;5.57;;;;;;;;;;3532046;40;20845;-82
2021/07/25 07:12:21;;;;;;;7.90;6.30;;;;;;;;;;3549106;40;20875;-80
2021/07/25 07:14:47;;;;;;;6.30;5.40;;;;;;;;;;3553549;39;20415;-81
2021/07/25 07:17:19;;;;;;;9.20;5.50;;;;;;;;;;3573653;40;20412;-81
2021/07/25 07:19:46;;;;;;;5.90;5.30;;;;;;;;;;3562957;40;20424;-80
2021/07/25 07:22:24;;;;;;;5.50;5.00;;;;;;;;;;3557218;40;20409;-80
2021/07/25 07:24:52;;;;;;;7.03;5.30;;;;;;;;;;3569037;39;21106;-81
2021/07/25 07:27:28;;;;;;;6.77;5.40;;;;;;;;;;3588059;39;20406;-81
2021/07/25 07:30:29;;;;;;;5.93;5.10;;;;;;;;;;3576006;40;20507;-80
2021/07/25 07:33:17;;;;;;;7.80;4.70;;;;;;;;;;3574918;39;21215;-80
2021/07/25 07:35:47;;;;;;;6.53;4.83;;;;;;;;;;3572015;39;20411;-80
2021/07/25 07:38:43;;;;;;;6.00;4.53;;;;;;;;;;3573558;39;20416;-80
2021/07/25 07:41:32;;;;;;;7.50;5.27;;;;;;;;;;3584383;39;20447;-81
2021/07/25 07:43:58;;;;;;;5.97;4.20;;;;;;;;;;3570526;40;20419;-81
2021/07/25 07:46:25;;;;;;;6.60;4.97;;;;;;;;;;3572742;39;21085;-82
2021/07/25 07:48:52;;;;;;;5.90;4.33;;;;;;;;;;3570186;40;20437;-79
2021/07/25 07:51:18;;;;;;;7.10;5.70;;;;;;;;;;3577318;40;21683;-79
2021/07/25 07:53:44;;;;;;;6.63;5.70;;;;;;;;;;3579008;39;20405;-79
2021/07/25 07:56:10;;;;;;;7.13;6.30;;;;;;;;;;3568902;40;20408;-83
2021/07/25 07:58:36;;;;;;;6.10;5.60;;;;;;;;;;3562198;39;20431;-81
2021/07/25 08:01:03;;;;;;;5.67;5.17;;;;;;;;;;3560694;40;20435;-81
2021/07/25 08:03:29;;;;;;;5.57;5.07;;;;;;;;;;3554247;39;20466;-81
2021/07/25 08:05:55;;;;;;;5.53;5.03;;;;;;;;;;3563404;40;20413;-80
2021/07/25 08:08:21;;;;;;;7.70;6.47;;;;;;;;;;3580764;39;20413;-80
2021/07/25 08:10:47;;;;;;;6.30;5.20;;;;;;;;;;3578290;39;20404;-79
2021/07/25 08:13:13;;;;;;;6.27;5.70;;;;;;;;;;3570046;40;20517;-80
2021/07/25 08:15:40;;;;;;;7.63;6.83;;;;;;;;;;3580992;39;20392;-81
2021/07/25 08:18:08;;;;;;;6.80;6.20;;;;;;;;;;3572587;40;20436;-81
2021/07/25 08:20:34;;;;;;;5.10;4.60;;;;;;;;;;3570332;40;20424;-80
2021/07/25 08:23:00;;;;;;;9.10;6.83;;;;;;;;;;3562184;39;20840;-81
2021/07/25 08:25:26;;;;;;;6.67;6.10;;;;;;;;;;3572039;39;20399;-80
2021/07/25 08:27:53;;;;;;;6.10;4.93;;;;;;;;;;3571094;40;20436;-81
2021/07/25 08:30:20;;;;;;;7.70;6.90;;;;;;;;;;3570618;40;20416;-80
2021/07/25 08:32:46;;;;;;;10.87;7.73;;;;;;;;;;3580787;39;20468;-81
2021/07/25 08:35:12;;;;;;;5.90;5.50;;;;;;;;;;3562844;40;20389;-81
2021/07/25 08:37:38;;;;;;;7.10;6.57;;;;;;;;;;3571704;40;20816;-82
2021/07/25 08:40:05;;;;;;;6.87;6.00;;;;;;;;;;3572922;40;20764;-81
2021/07/25 08:42:34;;;;;;;7.77;6.90;;;;;;;;;;3571213;40;20496;-80
2021/07/25 08:45:02;;;;;;;6.13;5.70;;;;;;;;;;3581700;39;20928;-80
2021/07/25 08:47:29;;;;;;;6.80;6.20;;;;;;;;;;3565738;40;21218;-80
2021/07/25 08:49:59;;;;;;;6.53;6.03;;;;;;;;;;3580573;40;20460;-81
2021/07/25 08:52:26;;;;;;;7.50;6.27;;;;;;;;;;3579783;39;20475;-81
2021/07/25 08:54:53;;;;;;;6.13;5.63;;;;;;;;;;3563957;40;20409;-81
2021/07/25 08:57:22;;;;;;;7.43;6.83;;;;;;;;;;3571913;40;20415;-81
2021/07/25 08:59:50;;;;;;;7.17;6.57;;;;;;;;;;3569950;40;20491;-81
2021/07/25 09:02:20;;;;;;;6.53;5.87;;;;;;;;;;3561390;40;20562;-81
2021/07/25 09:04:47;;;;;;;7.17;6.20;;;;;;;;;;3572799;40;21216;-82
2021/07/25 09:07:14;;;;;;;7.07;6.47;;;;;;;;;;3570509;40;20409;-80
2021/07/25 09:09:42;;;;;;;5.63;5.20;;;;;;;;;;3574550;40;20814;-81
2021/07/25 09:12:08;;;;;;;8.17;7.00;;;;;;;;;;3579927;39;20410;-81
2021/07/25 09:14:35;;;;;;;6.30;5.80;;;;;;;;;;3581181;39;20401;-80
2021/07/25 09:17:01;;;;;;;6.63;6.13;;;;;;;;;;3562337;40;20406;-81
2021/07/25 09:19:27;;;;;;;6.97;6.37;;;;;;;;;;3579183;39;20471;-81
2021/07/25 09:21:53;;;;;;;7.93;7.23;;;;;;;;;;3573504;39;20511;-82
2021/07/25 09:24:22;;;;;;;6.97;6.27;;;;;;;;;;3570845;40;20388;-81
2021/07/25 09:26:52;;;;;;;8.67;6.73;;;;;;;;;;3564008;40;20460;-82
2021/07/25 09:29:19;;;;;;;7.03;6.53;;;;;;;;;;3564242;39;20453;-83
2021/07/25 09:31:45;;;;;;;6.77;6.27;;;;;;;;;;3572993;40;20413;-80
2021/07/25 09:34:11;;;;;;;7.40;6.40;;;;;;;;;;3564935;40;20412;-84
2021/07/25 09:37:02;;;;;;;6.83;6.43;;;;;;;;;;3574115;40;21127;-84
2021/07/25 09:39:45;;;;;;;7.30;6.73;;;;;;;;;;3583749;39;20420;-82
2021/07/25 09:42:13;;;;;;;7.80;7.20;;;;;;;;;;3572775;40;20476;-83
2021/07/25 09:44:48;;;;;;;6.80;6.40;;;;;;;;;;3564325;40;20420;-84
2021/07/25 09:47:33;;;;;;;7.23;6.73;;;;;;;;;;3564366;40;20486;-82
2021/07/25 09:50:00;;;;;;;7.90;6.60;;;;;;;;;;3574902;40;20404;-83
2021/07/25 09:52:27;;;;;;;7.23;6.83;;;;;;;;;;3571214;39;20459;-82
2021/07/25 09:54:56;;;;;;;7.47;6.87;;;;;;;;;;3573863;40;20404;-86
2021/07/25 09:57:26;;;;;;;7.47;6.83;;;;;;;;;;3564506;39;20413;-83
2021/07/25 10:00:13;;;;;;;8.00;7.30;;;;;;;;;;3568070;40;20420;-84
2021/07/25 10:02:58;;;;;;;6.40;5.97;;;;;;;;;;3571256;40;20425;-83
2021/07/25 10:05:30;;;;;;;9.43;6.70;;;;;;;;;;3577249;40;20408;-84
2021/07/25 10:07:56;;;;;;;8.17;7.40;;;;;;;;;;3583581;40;21228;-83
2021/07/25 10:10:23;;;;;;;9.30;8.40;;;;;;;;;;3574043;40;20410;-82
2021/07/25 10:12:49;;;;;;;8.63;7.80;;;;;;;;;;3571310;40;20436;-83
2021/07/25 10:15:16;;;;;;;8.50;8.00;;;;;;;;;;3570468;40;20451;-81
2021/07/25 10:17:44;;;;;;;8.33;7.63;;;;;;;;;;3571743;39;20461;-84
2021/07/25 10:20:23;;;;;;;8.13;7.50;;;;;;;;;;3565356;40;20460;-81
2021/07/25 10:22:59;;;;;;;8.40;7.80;;;;;;;;;;3542562;40;20426;-82
2021/07/25 10:25:29;;;;;;;8.40;7.70;;;;;;;;;;3540352;40;20439;-82
2021/07/25 10:28:06;;;;;;;8.73;8.13;;;;;;;;;;3537751;40;20427;-82
2021/07/25 10:36:46;;;;;;;7.77;7.27;;;;;;;;;;3544060;40;20423;-84
2021/07/25 10:39:50;;;;;;;7.10;6.40;;;;;;;;;;3540416;40;20416;-84
2021/07/25 10:42:24;;;;;;;7.33;6.80;;;;;;;;;;3536407;40;20490;-84
2021/07/25 10:45:02;;;;;;;8.07;6.70;;;;;;;;;;3536523;40;20411;-83
2021/07/25 10:47:35;;;;;;;7.00;6.50;;;;;;;;;;3537305;40;20408;-86
2021/07/25 10:50:08;;;;;;;8.33;7.73;;;;;;;;;;3539921;40;20408;-86
2021/07/25 10:52:49;;;;;;;8.40;7.80;;;;;;;;;;3527243;40;20423;-84
2021/07/25 10:58:54;;;;;;;7.80;5.83;;;;;;;;;;3577411;40;20406;-83
2021/07/25 11:01:40;;;;;;;6.00;5.40;;;;;;;;;;3555999;40;21042;-84
2021/07/25 11:04:06;;;;;;;5.53;4.20;;;;;;;;;;3557227;40;20422;-84
2021/07/25 11:06:32;;;;;;;10.47;8.27;;;;;;;;;;3572862;40;20417;-84
2021/07/25 11:08:59;;;;;;;7.80;7.00;;;;;;;;;;3567425;40;21202;-85
2021/07/25 11:11:26;;;;;;;7.70;7.20;;;;;;;;;;3558613;40;20418;-83
2021/07/25 11:13:53;;;;;;;8.07;7.47;;;;;;;;;;3564849;40;20432;-82
2021/07/25 11:16:30;;;;;;;6.03;5.53;;;;;;;;;;3567997;40;20416;-82
2021/07/25 11:19:03;;;;;;;5.53;5.13;;;;;;;;;;3573999;40;20405;-82
2021/07/25 11:21:36;;;;;;;6.40;6.00;;;;;;;;;;3567064;40;20499;-83
2021/07/25 11:24:23;;;;;;;7.03;6.43;;;;;;;;;;3572871;40;21104;-83
2021/07/25 11:26:50;;;;;;;9.53;7.20;;;;;;;;;;3568602;40;20452;-84
2021/07/25 11:29:20;;;;;;;9.17;5.77;;;;;;;;;;3559711;40;20405;-84
2021/07/25 11:31:49;;;;;;;8.20;7.50;;;;;;;;;;3563503;40;20457;-84
2021/07/25 11:34:39;;;;;;;5.50;5.20;;;;;;;;;;3566131;40;21080;-85
2021/07/25 11:37:16;;;;;;;6.00;5.50;;;;;;;;;;3576128;40;20557;-84
2021/07/25 11:39:42;;;;;;;6.07;5.53;;;;;;;;;;3580982;40;20388;-85
2021/07/25 11:42:08;;;;;;;5.90;5.37;;;;;;;;;;3568370;40;20558;-84
2021/07/25 11:44:36;;;;;;;7.30;6.70;;;;;;;;;;3586971;39;20441;-82
2021/07/25 11:47:04;;;;;;;7.10;6.50;;;;;;;;;;3576960;40;20457;-84
2021/07/25 11:49:36;;;;;;;6.63;6.30;;;;;;;;;;3586898;40;20417;-84
2021/07/25 11:52:04;;;;;;;6.77;6.20;;;;;;;;;;3577605;40;20432;-82
2021/07/25 11:54:31;;;;;;;6.30;5.80;;;;;;;;;;3575836;40;20421;-82
2021/07/25 11:57:03;;;;;;;6.20;5.60;;;;;;;;;;3585043;39;20412;-83
2021/07/25 12:00:29;;;;;;;5.37;4.97;;;;;;;;;;3591228;39;20398;-82
2021/07/25 12:02:57;;;;;;;6.30;5.70;;;;;;;;;;3574177;40;20515;-84
2021/07/25 12:05:27;;;;;;;5.70;5.20;;;;;;;;;;3573886;39;20451;-83
2021/07/25 12:08:21;;;;;;;;;;;;;;;;;;;;;
2021/07/25 12:14:30;;;;;;;5.40;5.00;;;;;;;;;;3554130;40;20407;-87
2021/07/25 12:28:25;;;;;;;7.67;6.93;;;;;;;;;;3505534;41;20437;-82
2021/07/25 12:31:13;;;;;;;5.53;5.13;;;;;;;;;;3498920;41;20430;-83
2021/07/25 12:34:13;;;;;;;7.60;6.43;;;;;;;;;;3508628;40;20472;-85
2021/07/25 12:36:46;;;;;;;5.63;5.33;;;;;;;;;;3502237;41;20741;-84
2021/07/25 12:39:21;;;;;;;6.30;5.90;;;;;;;;;;3490532;40;20428;-85
2021/07/25 12:41:49;;;;;;;5.40;5.00;;;;;;;;;;3496923;41;20464;-82
2021/07/25 12:44:52;;;;;;;5.20;4.90;;;;;;;;;;3502039;40;20547;-81
2021/07/25 12:47:29;;;;;;;5.47;5.00;;;;;;;;;;3520755;40;20404;-81
2021/07/25 12:49:59;;;;;;;5.53;5.03;;;;;;;;;;3550823;40;20422;-81
2021/07/25 12:52:25;;;;;;;5.43;5.00;;;;;;;;;;3543127;40;20504;-82
2021/07/25 12:54:51;;;;;;;5.40;4.90;;;;;;;;;;3560301;40;20399;-82
2021/07/25 13:04:30;;;;;;;;;;;;;;;;;;;;;
2021/07/25 13:07:04;;;;;;;6.57;6.17;;;;;;;;;;3540369;40;20468;-83
2021/07/25 13:09:37;;;;;;;5.57;5.27;;;;;;;;;;3532874;40;20388;-85
2021/07/25 13:12:05;;;;;;;4.80;4.50;;;;;;;;;;3535590;40;20435;-82
2021/07/25 13:14:47;;;;;;;5.73;4.60;;;;;;;;;;3549211;40;20420;-82
2021/07/25 13:17:19;;;;;;;4.80;4.47;;;;;;;;;;3543833;40;20527;-82
2021/07/25 13:19:56;;;;;;;5.10;4.80;;;;;;;;;;3542738;40;20545;-83
2021/07/25 13:22:55;;;;;;;5.50;5.00;;;;;;;;;;3544733;40;20412;-81
2021/07/25 13:25:55;;;;;;;5.37;4.97;;;;;;;;;;3530811;40;21160;-81
2021/07/25 13:28:59;;;;;;;;;;;;;;;;;;;;;
2021/07/25 13:31:41;;;;;;;5.23;4.93;;;;;;;;;;3514964;40;20646;-81
2021/07/25 13:34:39;;;;;;;5.10;4.70;;;;;;;;;;3515511;40;20528;-81
2021/07/25 13:37:27;;;;;;;4.20;3.90;;;;;;;;;;3523750;40;20817;-82
2021/07/25 13:44:15;;;;;;;5.87;5.47;;;;;;;;;;3518992;40;20721;-80
2021/07/25 13:46:53;;;;;;;5.60;5.10;;;;;;;;;;3517383;40;20851;-82
2021/07/25 13:49:22;;;;;;;4.67;4.47;;;;;;;;;;3500587;40;20422;-81
2021/07/25 13:52:17;;;;;;;4.73;4.40;;;;;;;;;;3495121;40;20928;-82
2021/07/25 13:54:43;;;;;;;6.10;5.80;;;;;;;;;;3481443;41;20464;-81
2021/07/25 13:57:09;;;;;;;5.47;5.13;;;;;;;;;;3470778;41;20477;-81
2021/07/25 13:59:36;;;;;;;6.47;5.97;;;;;;;;;;3464551;41;20464;-81
2021/07/25 14:02:02;;;;;;;4.00;3.63;;;;;;;;;;3482991;41;20891;-81
2021/07/25 14:04:28;;;;;;;7.57;6.97;;;;;;;;;;3488707;41;20439;-80
2021/07/25 14:06:55;;;;;;;6.47;6.07;;;;;;;;;;3482735;41;20809;-81
2021/07/25 14:09:22;;;;;;;6.90;6.30;;;;;;;;;;3452851;41;20616;-81
2021/07/25 14:11:50;;;;;;;4.53;4.17;;;;;;;;;;3474505;41;20504;-81
2021/07/25 14:14:19;;;;;;;6.67;6.27;;;;;;;;;;3496381;40;20556;-81
2021/07/25 14:16:45;;;;;;;6.67;6.00;;;;;;;;;;3511085;40;20449;-81
2021/07/25 14:19:14;;;;;;;6.60;6.30;;;;;;;;;;3528106;40;20421;-81
2021/07/25 14:21:44;;;;;;;4.80;4.40;;;;;;;;;;3522651;40;20560;-83
2021/07/25 14:24:10;;;;;;;5.90;5.40;;;;;;;;;;3522769;40;20397;-81
2021/07/25 14:26:38;;;;;;;5.93;5.43;;;;;;;;;;3529190;40;20457;-81
2021/07/25 14:29:06;;;;;;;4.40;4.10;;;;;;;;;;3531030;40;20420;-83
2021/07/25 14:31:34;;;;;;;6.33;5.93;;;;;;;;;;3564234;40;20443;-81
2021/07/25 14:34:00;;;;;;;3.97;3.70;;;;;;;;;;3573904;40;20840;-79
2021/07/25 14:36:26;;;;;;;5.47;4.97;;;;;;;;;;3564003;40;20797;-80
2021/07/25 14:38:54;;;;;;;4.90;4.60;;;;;;;;;;3572964;40;20943;-81
2021/07/25 14:41:20;;;;;;;7.00;6.50;;;;;;;;;;3583085;39;20499;-80
2021/07/25 14:43:47;;;;;;;4.60;4.30;;;;;;;;;;3581952;40;20415;-80
2021/07/25 14:46:13;;;;;;;5.27;4.30;;;;;;;;;;3566035;39;20397;-83
2021/07/25 14:48:39;;;;;;;4.87;4.37;;;;;;;;;;3571617;40;20496;-81
2021/07/25 14:51:06;;;;;;;5.57;4.90;;;;;;;;;;3568285;40;20431;-80
2021/07/25 14:53:32;;;;;;;5.00;4.63;;;;;;;;;;3583874;39;20400;-81
2021/07/25 14:55:59;;;;;;;5.03;4.27;;;;;;;;;;3562820;40;20412;-81
2021/07/25 14:58:30;;;;;;;5.27;4.73;;;;;;;;;;3572670;39;20413;-81
2021/07/25 15:00:56;;;;;;;5.00;4.70;;;;;;;;;;3563796;40;20530;-80
2021/07/25 15:03:22;;;;;;;4.10;3.80;;;;;;;;;;3563406;39;20495;-80
2021/07/25 15:05:48;;;;;;;5.43;4.10;;;;;;;;;;3564249;40;20412;-81
2021/07/25 15:08:16;;;;;;;4.43;4.17;;;;;;;;;;3556578;40;20428;-80
2021/07/25 15:10:43;;;;;;;5.10;4.50;;;;;;;;;;3572317;40;20414;-81
2021/07/25 15:13:10;;;;;;;6.50;5.93;;;;;;;;;;3570681;40;20748;-80
2021/07/25 15:15:36;;;;;;;5.50;5.00;;;;;;;;;;3563534;40;20497;-80
2021/07/25 15:18:03;;;;;;;4.57;4.17;;;;;;;;;;3571457;39;21154;-79
2021/07/25 15:20:30;;;;;;;4.17;3.87;;;;;;;;;;3582133;40;20413;-80
2021/07/25 15:22:58;;;;;;;5.00;4.60;;;;;;;;;;3570489;40;20437;-80
2021/07/25 15:25:25;;;;;;;3.63;3.30;;;;;;;;;;3572082;40;20437;-80
2021/07/25 15:27:52;;;;;;;4.37;3.97;;;;;;;;;;3571174;40;20414;-80
2021/07/25 15:30:19;;;;;;;5.90;3.93;;;;;;;;;;3580152;39;21120;-80
2021/07/25 15:32:46;;;;;;;4.13;3.60;;;;;;;;;;3574364;40;20388;-84